createdAt,value
2023-05-07T00:01:26.146Z,13.77
2023-05-07T00:03:53.563Z,11.98
2023-05-07T00:06:21.080Z,13.07
2023-05-07T00:08:48.431Z,13.35
2023-05-07T00:11:16.185Z,10.93
2023-05-07T00:13:43.540Z,13.13
2023-05-07T00:16:10.675Z,12.75
2023-05-07T00:18:37.857Z,11.98
2023-05-07T00:21:11.024Z,13.73
2023-05-07T00:23:39.416Z,14.10
2023-05-07T00:26:06.808Z,13.15
2023-05-07T00:28:35.384Z,14.77
2023-05-07T00:31:02.990Z,13.65
2023-05-07T00:33:32.426Z,13.73
2023-05-07T00:35:59.864Z,16.52
2023-05-07T00:38:27.336Z,14.40
2023-05-07T00:40:54.787Z,15.50
2023-05-07T00:43:22.260Z,16.17
2023-05-07T00:45:51.788Z,17.48
2023-05-07T00:48:20.361Z,16.48
2023-05-07T00:50:49.456Z,15.40
2023-05-07T00:53:17.941Z,15.20
2023-05-07T00:55:45.182Z,16.70
2023-05-07T00:58:12.741Z,14.00
2023-05-07T01:00:40.073Z,15.48
2023-05-07T01:03:07.559Z,14.18
2023-05-07T01:05:36.843Z,15.77
2023-05-07T01:08:06.663Z,13.68
2023-05-07T01:10:34.145Z,15.93
2023-05-07T01:13:03.636Z,16.23
2023-05-07T01:15:30.943Z,17.23
2023-05-07T01:17:58.743Z,16.95
2023-05-07T01:20:26.471Z,15.90
2023-05-07T01:22:55.751Z,16.25
2023-05-07T01:25:23.957Z,13.40
2023-05-07T01:27:57.612Z,17.33
2023-05-07T01:33:03.919Z,13.52
2023-05-07T01:35:37.487Z,12.85
2023-05-07T01:38:07.466Z,12.38
2023-05-07T01:40:35.917Z,12.80
2023-05-07T01:43:07.180Z,10.55
2023-05-07T01:45:35.816Z,11.45
2023-05-07T01:48:04.465Z,13.82
2023-05-07T01:50:35.054Z,10.88
2023-05-07T01:53:03.837Z,12.23
2023-05-07T01:55:32.406Z,11.95
2023-05-07T01:57:59.981Z,13.68
2023-05-07T02:00:27.249Z,12.30
2023-05-07T02:02:54.686Z,12.93
2023-05-07T02:05:22.178Z,13.30
2023-05-07T02:07:49.538Z,12.35
2023-05-07T02:10:17.949Z,12.02
2023-05-07T02:12:47.501Z,13.32
2023-05-07T02:15:16.041Z,11.27
2023-05-07T02:18:04.420Z,12.73
2023-05-07T02:20:31.909Z,13.07
2023-05-07T02:22:59.687Z,12.27
2023-05-07T02:25:26.896Z,12.32
2023-05-07T02:27:54.198Z,9.90
2023-05-07T02:30:22.661Z,11.75
2023-05-07T02:32:50.232Z,8.88
2023-05-07T02:35:17.883Z,14.90
2023-05-07T02:37:45.181Z,14.32
2023-05-07T02:40:13.969Z,11.23
2023-05-07T02:42:43.232Z,11.38
2023-05-07T02:45:12.755Z,9.75
2023-05-07T02:47:40.218Z,13.00
2023-05-07T02:50:08.312Z,11.45
2023-05-07T02:52:36.590Z,9.98
2023-05-07T02:55:04.406Z,9.65
2023-05-07T02:57:31.541Z,14.13
2023-05-07T03:00:00.381Z,13.52
2023-05-07T03:02:27.990Z,18.13
2023-05-07T03:04:55.382Z,11.95
2023-05-07T03:07:22.981Z,14.88
2023-05-07T03:09:51.420Z,9.18
2023-05-07T03:12:18.858Z,8.93
2023-05-07T03:14:46.340Z,9.27
2023-05-07T03:17:13.494Z,12.07
2023-05-07T03:19:40.782Z,10.07
2023-05-07T03:22:09.221Z,11.43
2023-05-07T03:24:37.659Z,10.00
2023-05-07T03:27:05.216Z,15.75
2023-05-07T03:29:40.880Z,12.93
2023-05-07T03:32:09.317Z,15.25
2023-05-07T03:34:36.789Z,11.40
2023-05-07T03:37:09.865Z,10.30
2023-05-07T03:39:38.310Z,14.68
2023-05-07T03:42:05.896Z,21.75
2023-05-07T03:44:33.392Z,32.78
2023-05-07T03:47:00.841Z,22.42
2023-05-07T03:49:28.185Z,35.38
2023-05-07T03:51:55.636Z,41.25
2023-05-07T03:54:23.071Z,22.00
2023-05-07T03:56:50.753Z,17.17
2023-05-07T03:59:20.148Z,27.50
2023-05-07T04:01:47.590Z,18.00
2023-05-07T04:04:17.359Z,11.88
2023-05-07T04:06:45.983Z,12.20
2023-05-07T04:09:15.257Z,9.88
2023-05-07T04:11:42.405Z,9.10
2023-05-07T04:14:09.880Z,9.90
2023-05-07T04:16:36.915Z,11.10
2023-05-07T04:19:10.551Z,12.27
2023-05-07T04:24:07.138Z,11.77
2023-05-07T04:26:40.477Z,13.07
2023-05-07T04:29:08.200Z,9.57
2023-05-07T04:31:36.680Z,10.52
2023-05-07T04:34:03.948Z,10.30
2023-05-07T04:36:32.158Z,11.88
2023-05-07T04:39:01.741Z,10.95
2023-05-07T04:41:29.639Z,8.43
2023-05-07T04:43:56.815Z,9.82
2023-05-07T04:46:25.878Z,10.15
2023-05-07T04:48:59.449Z,8.43
2023-05-07T04:51:27.002Z,7.32
2023-05-07T04:53:54.262Z,8.00
2023-05-07T04:56:21.997Z,9.18
2023-05-07T04:58:50.389Z,9.82
2023-05-07T05:01:17.700Z,8.75
2023-05-07T05:03:47.243Z,8.40
2023-05-07T05:06:14.768Z,8.80
2023-05-07T05:08:42.099Z,7.05
2023-05-07T05:11:11.099Z,7.30
2023-05-07T05:13:38.531Z,6.80
2023-05-07T05:16:06.146Z,6.93
2023-05-07T05:18:34.487Z,7.72
2023-05-07T05:21:02.232Z,7.38
2023-05-07T05:23:29.373Z,5.32
2023-05-07T05:26:00.311Z,5.35
2023-05-07T05:28:28.760Z,7.68
2023-05-07T05:30:57.268Z,6.25
2023-05-07T05:33:24.521Z,5.28
2023-05-07T05:35:53.106Z,7.45
2023-05-07T05:38:20.333Z,8.43
2023-05-07T05:40:49.565Z,7.20
2023-05-07T05:43:17.199Z,7.45
2023-05-07T05:45:46.666Z,6.15
2023-05-07T05:48:14.308Z,5.90
2023-05-07T05:50:41.593Z,5.85
2023-05-07T05:53:10.183Z,6.60
2023-05-07T05:55:37.645Z,7.03
2023-05-07T05:58:05.138Z,7.72
2023-05-07T06:00:32.346Z,7.30
2023-05-07T06:02:59.949Z,5.93
2023-05-07T06:05:29.453Z,5.85
2023-05-07T06:07:57.834Z,6.32
2023-05-07T06:10:25.586Z,5.03
2023-05-07T06:12:54.918Z,5.55
2023-05-07T06:15:22.409Z,6.18
2023-05-07T06:17:50.574Z,5.38
2023-05-07T06:20:18.941Z,5.05
2023-05-07T06:22:46.321Z,4.40
2023-05-07T06:25:13.880Z,5.18
2023-05-07T06:27:41.497Z,4.55
2023-05-07T06:30:10.392Z,6.03
2023-05-07T06:32:43.843Z,4.38
2023-05-07T06:35:12.286Z,5.28
2023-05-07T06:37:43.965Z,5.30
2023-05-07T06:40:11.965Z,5.95
2023-05-07T06:42:40.560Z,4.10
2023-05-07T06:45:09.678Z,4.72
2023-05-07T06:47:37.246Z,4.80
2023-05-07T06:50:04.862Z,4.82
2023-05-07T06:52:32.178Z,5.70
2023-05-07T06:54:59.577Z,4.32
2023-05-07T06:57:27.118Z,5.32
2023-05-07T06:59:54.644Z,6.00
2023-05-07T07:02:22.062Z,4.70
2023-05-07T07:04:49.602Z,5.88
2023-05-07T07:07:17.337Z,5.18
2023-05-07T07:09:45.175Z,5.30
2023-05-07T07:12:12.550Z,5.22
2023-05-07T07:14:49.023Z,6.85
2023-05-07T07:17:16.095Z,5.75
2023-05-07T07:19:44.845Z,5.88
2023-05-07T07:22:12.529Z,4.80
2023-05-07T07:24:40.107Z,6.00
2023-05-07T07:27:07.465Z,5.57
2023-05-07T07:29:34.744Z,6.13
2023-05-07T07:32:02.131Z,7.38
2023-05-07T07:34:29.565Z,7.28
2023-05-07T07:36:57.543Z,8.70
2023-05-07T07:39:25.067Z,7.85
2023-05-07T07:41:52.571Z,8.30
2023-05-07T07:44:20.035Z,6.93
2023-05-07T07:46:47.743Z,8.32
2023-05-07T07:49:16.221Z,7.95
2023-05-07T07:51:43.943Z,7.47
2023-05-07T07:54:11.756Z,7.40
2023-05-07T07:56:39.799Z,6.65
2023-05-07T07:59:07.376Z,6.45
2023-05-07T08:01:36.864Z,7.13
2023-05-07T08:04:11.581Z,9.93
2023-05-07T08:06:45.613Z,13.02
2023-05-07T08:09:12.994Z,46.10
2023-05-07T08:11:41.156Z,9.75
2023-05-07T08:14:09.538Z,23.17
2023-05-07T08:16:36.618Z,9.32
2023-05-07T08:19:04.080Z,64.78
2023-05-07T08:21:34.437Z,103.47
2023-05-07T08:24:02.403Z,56.47
2023-05-07T08:26:37.262Z,30.88
2023-05-07T08:29:04.430Z,7.57
2023-05-07T08:31:32.008Z,6.05
2023-05-07T08:34:00.837Z,5.53
2023-05-07T08:36:29.951Z,6.97
2023-05-07T08:38:57.509Z,6.88
2023-05-07T08:41:24.901Z,5.78
2023-05-07T08:44:01.478Z,5.65
2023-05-07T08:46:33.643Z,8.98
2023-05-07T08:49:03.994Z,6.90
2023-05-07T08:51:33.657Z,6.45
2023-05-07T08:54:02.736Z,7.18
2023-05-07T08:56:30.177Z,5.35
2023-05-07T08:59:00.139Z,5.75
2023-05-07T09:01:27.864Z,5.80
2023-05-07T09:03:56.801Z,5.00
2023-05-07T09:06:24.210Z,4.97
2023-05-07T09:08:56.546Z,5.93
2023-05-07T09:11:25.104Z,8.32
2023-05-07T09:13:57.530Z,5.65
2023-05-07T09:16:25.705Z,6.82
2023-05-07T09:18:56.358Z,5.85
2023-05-07T09:21:24.334Z,6.10
2023-05-07T09:23:57.217Z,8.18
2023-05-07T09:26:25.993Z,8.50
2023-05-07T09:28:53.625Z,7.53
2023-05-07T09:31:21.937Z,9.25
2023-05-07T09:33:50.439Z,10.20
2023-05-07T09:36:19.446Z,6.32
2023-05-07T09:38:47.020Z,6.90
2023-05-07T09:41:14.969Z,5.10
2023-05-07T09:43:42.388Z,5.20
2023-05-07T09:46:18.118Z,5.55
2023-05-07T09:48:45.923Z,4.88
2023-05-07T09:51:40.084Z,4.90
2023-05-07T09:54:08.787Z,5.55
2023-05-07T09:56:39.080Z,5.75
2023-05-07T09:59:08.350Z,4.53
2023-05-07T10:01:38.620Z,6.10
2023-05-07T10:04:08.059Z,5.55
2023-05-07T10:06:36.989Z,4.25
2023-05-07T10:09:07.021Z,5.03
2023-05-07T10:11:36.618Z,4.00
2023-05-07T10:14:07.068Z,5.30
2023-05-07T10:16:39.124Z,5.13
2023-05-07T10:19:13.821Z,5.03
2023-05-07T10:21:49.673Z,6.18
2023-05-07T10:24:23.196Z,6.65
2023-05-07T10:26:53.977Z,8.00
2023-05-07T10:29:28.136Z,7.75
2023-05-07T10:32:14.650Z,9.18
2023-05-07T10:34:46.922Z,10.23
2023-05-07T10:37:16.145Z,7.03
2023-05-07T10:39:44.183Z,6.40
2023-05-07T10:42:13.464Z,6.07
2023-05-07T10:44:41.828Z,7.07
2023-05-07T10:47:12.008Z,7.10
2023-05-07T10:49:48.332Z,7.00
2023-05-07T10:52:27.431Z,20.25
2023-05-07T10:55:22.806Z,9.73
2023-05-07T10:57:51.086Z,8.32
2023-05-07T11:00:25.274Z,9.77
2023-05-07T11:03:06.679Z,6.90
2023-05-07T11:05:37.575Z,5.70
2023-05-07T11:08:06.891Z,7.03
2023-05-07T11:10:58.440Z,6.65
2023-05-07T11:13:48.159Z,18.52
2023-05-07T11:16:24.492Z,11.50
2023-05-07T11:18:55.296Z,18.10
2023-05-07T11:21:43.045Z,13.82
2023-05-07T11:24:12.118Z,10.23
2023-05-07T11:26:50.579Z,16.42
2023-05-07T11:29:23.872Z,13.57
2023-05-07T11:31:56.159Z,8.32
2023-05-07T11:34:28.146Z,8.27
2023-05-07T11:36:57.206Z,6.40
2023-05-07T11:39:34.226Z,5.47
2023-05-07T11:42:02.299Z,7.22
2023-05-07T11:44:47.513Z,6.32
2023-05-07T11:47:20.049Z,10.77
2023-05-07T11:49:52.158Z,9.68
2023-05-07T11:52:21.307Z,5.60
2023-05-07T11:54:54.022Z,7.45
2023-05-07T11:57:21.926Z,15.73
2023-05-07T12:00:01.317Z,11.50
2023-05-07T12:02:35.791Z,9.27
2023-05-07T12:05:16.095Z,9.88
2023-05-07T12:07:43.590Z,18.15
2023-05-07T12:10:28.359Z,11.63
2023-05-07T12:13:10.251Z,13.00
2023-05-07T12:15:52.479Z,11.50
2023-05-07T12:18:22.354Z,8.18
2023-05-07T12:20:55.090Z,6.88
2023-05-07T12:23:30.547Z,7.43
2023-05-07T12:26:00.865Z,9.15
2023-05-07T12:28:35.065Z,15.27
2023-05-07T12:31:04.305Z,11.60
2023-05-07T12:33:35.805Z,6.20
2023-05-07T12:36:10.423Z,6.95
2023-05-07T12:38:45.557Z,6.78
2023-05-07T12:41:36.170Z,7.40
2023-05-07T12:44:07.143Z,7.47
2023-05-07T12:46:41.381Z,7.30
2023-05-07T12:49:11.155Z,7.28
2023-05-07T12:51:40.411Z,10.65
2023-05-07T12:54:34.394Z,13.80
2023-05-07T12:57:16.022Z,7.15
2023-05-07T12:59:44.364Z,13.93
2023-05-07T13:02:15.820Z,5.70
2023-05-07T13:07:42.479Z,17.13
2023-05-07T13:10:15.285Z,19.25
2023-05-07T13:12:43.002Z,17.27
2023-05-07T13:15:28.888Z,13.30
2023-05-07T13:17:59.496Z,9.63
2023-05-07T13:20:29.976Z,10.13
2023-05-07T13:22:57.823Z,14.63
2023-05-07T13:25:28.840Z,8.73
2023-05-07T13:28:06.716Z,6.38
2023-05-07T13:31:19.535Z,9.25
2023-05-07T13:33:47.072Z,7.30
2023-05-07T13:36:14.617Z,10.23
2023-05-07T13:38:42.018Z,8.85
2023-05-07T13:41:09.419Z,9.45
2023-05-07T13:43:36.943Z,5.85
2023-05-07T13:46:04.404Z,8.48
2023-05-07T13:48:37.948Z,12.05
2023-05-07T13:51:05.981Z,6.47
2023-05-07T13:53:33.376Z,6.38
2023-05-07T13:56:00.831Z,5.65
2023-05-07T13:58:28.397Z,6.53
2023-05-07T14:00:55.842Z,7.75
2023-05-07T14:03:23.463Z,8.82
2023-05-07T14:05:51.214Z,11.10
2023-05-07T14:08:25.050Z,9.43
2023-05-07T14:10:52.257Z,8.50
2023-05-07T14:13:19.805Z,6.05
2023-05-07T14:15:48.135Z,6.60
2023-05-07T14:18:17.346Z,9.77
2023-05-07T14:20:52.802Z,9.05
2023-05-07T14:23:39.901Z,14.13
2023-05-07T14:26:17.559Z,16.13
2023-05-07T14:28:49.193Z,14.77
2023-05-07T14:31:21.150Z,16.40
2023-05-07T14:33:48.611Z,16.48
2023-05-07T14:36:16.856Z,15.65
2023-05-07T14:41:33.069Z,143.38
2023-05-07T14:44:01.961Z,69.22
2023-05-07T14:46:29.393Z,102.30
2023-05-07T14:49:01.616Z,106.45
2023-05-07T14:51:35.600Z,221.18
2023-05-07T14:54:06.085Z,129.38
2023-05-07T14:56:41.652Z,237.57
2023-05-07T14:59:36.455Z,229.55
2023-05-07T15:02:07.023Z,149.93
2023-05-07T15:04:35.541Z,496.40
2023-05-07T15:07:03.250Z,330.10
2023-05-07T15:09:37.684Z,43.28
2023-05-07T15:12:12.903Z,32.03
2023-05-07T15:14:40.672Z,43.13
2023-05-07T15:17:08.728Z,15.00
2023-05-07T15:19:39.768Z,26.10
2023-05-07T15:22:08.186Z,16.08
2023-05-07T15:24:42.755Z,9.45
2023-05-07T15:27:12.229Z,10.20
2023-05-07T15:29:39.924Z,7.53
2023-05-07T15:32:08.793Z,11.07
2023-05-07T15:34:37.398Z,9.02
2023-05-07T15:37:06.163Z,8.70
2023-05-07T15:39:34.448Z,8.25
2023-05-07T15:42:03.737Z,9.40
2023-05-07T15:44:35.530Z,9.35
2023-05-07T15:47:03.743Z,7.57
2023-05-07T15:49:36.284Z,9.50
2023-05-07T15:52:18.374Z,7.93
2023-05-07T15:54:46.142Z,6.75
2023-05-07T15:57:22.045Z,7.22
2023-05-07T15:59:51.761Z,7.05
2023-05-07T16:02:32.472Z,8.60
2023-05-07T16:05:04.336Z,9.15
2023-05-07T16:07:32.030Z,10.85
2023-05-07T16:10:04.260Z,16.90
2023-05-07T16:12:33.924Z,19.90
2023-05-07T16:15:10.959Z,26.63
2023-05-07T16:17:38.457Z,13.90
2023-05-07T16:20:23.437Z,19.58
2023-05-07T16:22:51.011Z,17.92
2023-05-07T16:25:20.574Z,20.80
2023-05-07T16:27:48.982Z,20.17
2023-05-07T16:30:18.926Z,10.63
2023-05-07T16:32:49.779Z,8.00
2023-05-07T16:35:18.560Z,7.60
2023-05-07T16:37:51.140Z,12.10
2023-05-07T16:40:20.059Z,11.35
2023-05-07T16:42:56.201Z,7.68
2023-05-07T16:45:23.790Z,8.40
2023-05-07T16:47:51.250Z,18.38
2023-05-07T16:50:18.916Z,20.67
2023-05-07T16:52:47.260Z,12.48
2023-05-07T16:55:17.955Z,13.18
2023-05-07T16:57:51.341Z,16.48
2023-05-07T17:00:18.779Z,12.55
2023-05-07T17:02:47.409Z,9.82
2023-05-07T17:05:15.274Z,14.38
2023-05-07T17:07:43.698Z,18.73
2023-05-07T17:10:11.240Z,9.13
2023-05-07T17:12:38.675Z,12.30
2023-05-07T17:15:08.502Z,10.85
2023-05-07T17:17:35.705Z,8.05
2023-05-07T17:20:04.052Z,8.88
2023-05-07T17:22:31.621Z,11.77
2023-05-07T17:24:59.936Z,11.07
2023-05-07T17:27:27.510Z,13.60
2023-05-07T17:29:55.142Z,11.07
2023-05-07T17:32:22.774Z,7.82
2023-05-07T17:34:50.305Z,11.80
2023-05-07T17:37:17.870Z,11.48
2023-05-07T17:39:50.447Z,16.42
2023-05-07T17:42:19.190Z,8.70
2023-05-07T17:44:48.138Z,9.50
2023-05-07T17:47:16.474Z,6.93
2023-05-07T17:49:43.921Z,8.77
2023-05-07T17:54:56.430Z,8.88
2023-05-07T17:57:28.705Z,8.88
2023-05-07T17:59:58.368Z,7.32
2023-05-07T18:02:33.591Z,7.32
2023-05-07T18:05:01.069Z,7.85
2023-05-07T18:07:29.427Z,9.15
2023-05-07T18:09:56.938Z,8.05
2023-05-07T18:12:26.191Z,9.55
2023-05-07T18:14:54.877Z,9.68
2023-05-07T18:17:24.760Z,7.88
2023-05-07T18:19:55.174Z,9.50
2023-05-07T18:22:24.212Z,7.43
2023-05-07T18:24:53.636Z,10.27
2023-05-07T18:27:21.095Z,14.60
2023-05-07T18:29:48.366Z,15.82
2023-05-07T18:32:17.170Z,19.17
2023-05-07T18:34:45.621Z,8.50
2023-05-07T18:37:13.785Z,7.05
2023-05-07T18:39:45.258Z,10.57
2023-05-07T18:42:24.226Z,7.30
2023-05-07T18:44:53.962Z,7.70
2023-05-07T18:47:23.659Z,6.90
2023-05-07T18:49:57.316Z,7.20
2023-05-07T18:52:26.519Z,8.18
2023-05-07T18:55:07.028Z,7.35
2023-05-07T18:57:39.560Z,6.43
2023-05-07T19:00:14.733Z,7.65
2023-05-07T19:02:53.652Z,7.72
2023-05-07T19:05:29.277Z,7.28
2023-05-07T19:08:02.447Z,8.57
2023-05-07T19:10:39.408Z,6.75
2023-05-07T19:13:16.130Z,7.40
2023-05-07T19:15:51.184Z,6.20
2023-05-07T19:18:25.053Z,6.32
2023-05-07T19:21:02.972Z,6.70
2023-05-07T19:23:35.350Z,5.93
2023-05-07T19:26:07.186Z,6.00
2023-05-07T19:28:36.602Z,7.15
2023-05-07T19:31:28.178Z,6.53
2023-05-07T19:34:01.332Z,6.05
2023-05-07T19:36:31.227Z,6.68
2023-05-07T19:41:51.311Z,7.63
2023-05-07T19:44:23.653Z,7.00
2023-05-07T19:46:55.533Z,7.93
2023-05-07T19:49:23.470Z,8.43
2023-05-07T19:51:53.424Z,8.10
2023-05-07T19:54:32.727Z,6.90
2023-05-07T19:57:01.844Z,7.40
2023-05-07T19:59:30.973Z,8.50
2023-05-07T20:02:00.418Z,7.57
2023-05-07T20:04:39.838Z,8.02
2023-05-07T20:07:11.067Z,7.57
2023-05-07T20:09:38.811Z,7.28
2023-05-07T20:12:08.322Z,7.20
2023-05-07T20:14:38.393Z,6.78
2023-05-07T20:17:05.723Z,7.55
2023-05-07T20:19:33.447Z,6.38
2023-05-07T20:22:01.172Z,9.30
2023-05-07T20:24:28.398Z,6.82
2023-05-07T20:26:55.955Z,6.65
2023-05-07T20:29:23.572Z,5.07
2023-05-07T20:31:52.882Z,6.28
2023-05-07T20:34:21.360Z,5.20
2023-05-07T20:36:50.190Z,5.45
2023-05-07T20:39:19.853Z,4.95
2023-05-07T20:41:50.362Z,5.13
2023-05-07T20:44:25.029Z,5.80
2023-05-07T20:46:54.147Z,5.53
2023-05-07T20:49:28.425Z,5.18
2023-05-07T20:52:04.172Z,6.00
2023-05-07T20:54:41.542Z,3.95
2023-05-07T20:57:08.962Z,4.93
2023-05-07T20:59:37.190Z,3.78
2023-05-07T21:02:04.825Z,3.75
2023-05-07T21:04:33.100Z,3.67
2023-05-07T21:07:01.148Z,3.53
2023-05-07T21:09:29.603Z,3.42
2023-05-07T21:11:58.295Z,3.20
2023-05-07T21:14:25.724Z,3.35
2023-05-07T21:16:53.013Z,5.25
2023-05-07T21:19:21.656Z,4.18
2023-05-07T21:21:50.190Z,3.22
2023-05-07T21:24:18.725Z,3.53
2023-05-07T21:26:46.089Z,4.55
2023-05-07T21:29:14.407Z,3.80
2023-05-07T21:31:41.915Z,3.78
2023-05-07T21:34:10.245Z,4.07
2023-05-07T21:36:38.416Z,4.43
2023-05-07T21:39:08.226Z,4.00
2023-05-07T21:41:36.720Z,3.53
2023-05-07T21:44:06.002Z,4.28
2023-05-07T21:46:34.237Z,3.72
2023-05-07T21:49:01.847Z,3.97
2023-05-07T21:51:30.054Z,3.63
2023-05-07T21:53:58.385Z,3.58
2023-05-07T21:56:31.692Z,4.05
2023-05-07T21:58:59.160Z,6.50
2023-05-07T22:01:26.414Z,6.22
2023-05-07T22:03:54.572Z,4.20
2023-05-07T22:06:22.891Z,4.97
2023-05-07T22:08:51.749Z,7.22
2023-05-07T22:11:22.090Z,5.22
2023-05-07T22:13:50.322Z,7.97
2023-05-07T22:16:17.670Z,5.72
2023-05-07T22:18:49.815Z,4.47
2023-05-07T22:21:18.292Z,7.15
2023-05-07T22:23:54.814Z,6.15
2023-05-07T22:26:22.581Z,6.22
2023-05-07T22:28:52.966Z,7.63
2023-05-07T22:31:20.405Z,8.48
2023-05-07T22:33:47.525Z,8.57
2023-05-07T22:36:14.966Z,10.25
2023-05-07T22:38:42.541Z,8.57
2023-05-07T22:41:10.200Z,8.43
2023-05-07T22:43:38.290Z,8.70
2023-05-07T22:46:11.758Z,9.93
2023-05-07T22:48:39.108Z,11.50
2023-05-07T22:51:06.675Z,11.25
2023-05-07T22:53:35.006Z,9.20
2023-05-07T22:56:06.497Z,8.68
2023-05-07T22:58:34.487Z,8.27
2023-05-07T23:01:02.676Z,9.45
2023-05-07T23:03:30.053Z,9.02
2023-05-07T23:06:05.919Z,9.27
2023-05-07T23:08:33.068Z,11.10
2023-05-07T23:11:01.662Z,8.82
2023-05-07T23:13:28.993Z,8.98
2023-05-07T23:15:56.457Z,9.40
2023-05-07T23:18:23.924Z,9.75
2023-05-07T23:20:54.456Z,8.10
2023-05-07T23:23:23.074Z,8.40
2023-05-07T23:25:54.260Z,9.75
2023-05-07T23:28:21.733Z,8.90
2023-05-07T23:30:49.442Z,9.70
2023-05-07T23:33:22.758Z,9.73
2023-05-07T23:35:49.795Z,8.38
2023-05-07T23:38:17.072Z,8.40
2023-05-07T23:40:44.579Z,9.13
2023-05-07T23:43:11.708Z,7.57
2023-05-07T23:45:39.209Z,9.15
2023-05-07T23:48:06.873Z,8.80
2023-05-07T23:50:39.298Z,8.63
2023-05-07T23:53:06.747Z,9.80
2023-05-07T23:55:34.256Z,9.65
2023-05-07T23:58:01.906Z,11.27
